sensor_id;sensor_type;location;lat;lon;timestamp;pressure;altitude;pressure_sealevel;temperature
25514;BMP180;48128;54.242;10.280;2022-09-30T00:00:34;100142.00;;;9.80
25514;BMP180;48128;54.242;10.280;2022-09-30T00:03:01;100140.00;;;9.80
25514;BMP180;48128;54.242;10.280;2022-09-30T00:05:28;100148.00;;;9.80
25514;BMP180;48128;54.242;10.280;2022-09-30T00:07:55;100145.00;;;9.80
25514;BMP180;48128;54.242;10.280;2022-09-30T00:10:21;100137.00;;;9.80
25514;BMP180;48128;54.242;10.280;2022-09-30T00:12:50;100134.00;;;9.80
25514;BMP180;48128;54.242;10.280;2022-09-30T00:15:18;100131.00;;;9.80
25514;BMP180;48128;54.242;10.280;2022-09-30T00:17:45;100148.00;;;9.80
25514;BMP180;48128;54.242;10.280;2022-09-30T00:20:12;100140.00;;;9.80
25514;BMP180;48128;54.242;10.280;2022-09-30T00:22:40;100137.00;;;9.80
25514;BMP180;48128;54.242;10.280;2022-09-30T00:25:07;100143.00;;;9.80
25514;BMP180;48128;54.242;10.280;2022-09-30T00:27:34;100144.00;;;9.80
25514;BMP180;48128;54.242;10.280;2022-09-30T00:30:00;100149.00;;;9.80
25514;BMP180;48128;54.242;10.280;2022-09-30T00:32:27;100148.00;;;9.80
25514;BMP180;48128;54.242;10.280;2022-09-30T00:34:54;100144.00;;;9.80
25514;BMP180;48128;54.242;10.280;2022-09-30T00:37:21;100143.00;;;9.80
25514;BMP180;48128;54.242;10.280;2022-09-30T00:39:48;100147.00;;;9.80
25514;BMP180;48128;54.242;10.280;2022-09-30T00:42:14;100151.00;;;9.80
25514;BMP180;48128;54.242;10.280;2022-09-30T00:44:55;100153.00;;;9.80
25514;BMP180;48128;54.242;10.280;2022-09-30T00:47:32;100152.00;;;9.80
25514;BMP180;48128;54.242;10.280;2022-09-30T00:52:41;100156.00;;;9.80
25514;BMP180;48128;54.242;10.280;2022-09-30T00:55:18;100148.00;;;9.80
25514;BMP180;48128;54.242;10.280;2022-09-30T00:57:46;100157.00;;;9.80
25514;BMP180;48128;54.242;10.280;2022-09-30T01:00:13;100141.00;;;9.80
25514;BMP180;48128;54.242;10.280;2022-09-30T01:02:39;100146.00;;;9.80
25514;BMP180;48128;54.242;10.280;2022-09-30T01:05:06;100144.00;;;9.80
25514;BMP180;48128;54.242;10.280;2022-09-30T01:07:34;100160.00;;;9.80
25514;BMP180;48128;54.242;10.280;2022-09-30T01:10:02;100158.00;;;9.80
25514;BMP180;48128;54.242;10.280;2022-09-30T01:12:29;100164.00;;;9.80
25514;BMP180;48128;54.242;10.280;2022-09-30T01:14:55;100173.00;;;9.80
25514;BMP180;48128;54.242;10.280;2022-09-30T01:17:48;100154.00;;;9.80
25514;BMP180;48128;54.242;10.280;2022-09-30T01:23:46;100159.00;;;9.80
25514;BMP180;48128;54.242;10.280;2022-09-30T01:26:43;100178.00;;;9.80
25514;BMP180;48128;54.242;10.280;2022-09-30T01:32:12;100171.00;;;9.80
25514;BMP180;48128;54.242;10.280;2022-09-30T01:37:51;100177.00;;;9.80
25514;BMP180;48128;54.242;10.280;2022-09-30T01:40:27;100187.00;;;9.80
25514;BMP180;48128;54.242;10.280;2022-09-30T01:45:56;100182.00;;;9.80
25514;BMP180;48128;54.242;10.280;2022-09-30T01:51:39;100187.00;;;9.70
25514;BMP180;48128;54.242;10.280;2022-09-30T01:54:35;100181.00;;;9.70
25514;BMP180;48128;54.242;10.280;2022-09-30T01:57:17;100195.00;;;9.70
25514;BMP180;48128;54.242;10.280;2022-09-30T01:59:47;100189.00;;;9.70
25514;BMP180;48128;54.242;10.280;2022-09-30T02:02:23;100196.00;;;9.70
25514;BMP180;48128;54.242;10.280;2022-09-30T02:05:03;100189.00;;;9.70
25514;BMP180;48128;54.242;10.280;2022-09-30T02:07:35;100190.00;;;9.70
25514;BMP180;48128;54.242;10.280;2022-09-30T02:10:13;100189.00;;;9.70
25514;BMP180;48128;54.242;10.280;2022-09-30T02:12:45;100192.00;;;9.70
25514;BMP180;48128;54.242;10.280;2022-09-30T02:15:17;100192.00;;;9.70
25514;BMP180;48128;54.242;10.280;2022-09-30T02:17:51;100191.00;;;9.70
25514;BMP180;48128;54.242;10.280;2022-09-30T02:20:26;100199.00;;;9.70
25514;BMP180;48128;54.242;10.280;2022-09-30T02:23:19;100199.00;;;9.70
25514;BMP180;48128;54.242;10.280;2022-09-30T02:26:01;100211.00;;;9.70
25514;BMP180;48128;54.242;10.280;2022-09-30T02:28:37;100203.00;;;9.70
25514;BMP180;48128;54.242;10.280;2022-09-30T02:31:07;100211.00;;;9.70
25514;BMP180;48128;54.242;10.280;2022-09-30T02:33:39;100211.00;;;9.70
25514;BMP180;48128;54.242;10.280;2022-09-30T02:36:15;100208.00;;;9.70
25514;BMP180;48128;54.242;10.280;2022-09-30T02:38:44;100208.00;;;9.70
25514;BMP180;48128;54.242;10.280;2022-09-30T02:41:14;100212.00;;;9.70
25514;BMP180;48128;54.242;10.280;2022-09-30T02:43:42;100222.00;;;9.70
25514;BMP180;48128;54.242;10.280;2022-09-30T02:46:24;100218.00;;;9.70
25514;BMP180;48128;54.242;10.280;2022-09-30T02:56:58;100210.00;;;9.70
25514;BMP180;48128;54.242;10.280;2022-09-30T02:59:28;100213.00;;;9.70
25514;BMP180;48128;54.242;10.280;2022-09-30T03:01:54;100211.00;;;9.70
25514;BMP180;48128;54.242;10.280;2022-09-30T03:04:23;100218.00;;;9.70
25514;BMP180;48128;54.242;10.280;2022-09-30T03:06:51;100226.00;;;9.60
25514;BMP180;48128;54.242;10.280;2022-09-30T03:09:22;100222.00;;;9.70
25514;BMP180;48128;54.242;10.280;2022-09-30T03:11:49;100219.00;;;9.60
25514;BMP180;48128;54.242;10.280;2022-09-30T03:14:41;100215.00;;;9.70
25514;BMP180;48128;54.242;10.280;2022-09-30T03:17:28;100228.00;;;9.70
25514;BMP180;48128;54.242;10.280;2022-09-30T03:20:22;100237.00;;;9.70
25514;BMP180;48128;54.242;10.280;2022-09-30T03:23:02;100237.00;;;9.70
25514;BMP180;48128;54.242;10.280;2022-09-30T03:25:49;100237.00;;;9.70
25514;BMP180;48128;54.242;10.280;2022-09-30T03:33:49;100245.00;;;9.70
25514;BMP180;48128;54.242;10.280;2022-09-30T03:36:27;100248.00;;;9.70
25514;BMP180;48128;54.242;10.280;2022-09-30T03:41:49;100246.00;;;9.70
25514;BMP180;48128;54.242;10.280;2022-09-30T03:44:21;100257.00;;;9.70
25514;BMP180;48128;54.242;10.280;2022-09-30T03:46:58;100252.00;;;9.70
25514;BMP180;48128;54.242;10.280;2022-09-30T03:49:29;100256.00;;;9.70
25514;BMP180;48128;54.242;10.280;2022-09-30T03:51:57;100245.00;;;9.70
25514;BMP180;48128;54.242;10.280;2022-09-30T03:54:25;100261.00;;;9.60
25514;BMP180;48128;54.242;10.280;2022-09-30T03:56:52;100255.00;;;9.60
25514;BMP180;48128;54.242;10.280;2022-09-30T03:59:23;100260.00;;;9.60
25514;BMP180;48128;54.242;10.280;2022-09-30T04:01:51;100257.00;;;9.60
25514;BMP180;48128;54.242;10.280;2022-09-30T04:04:18;100260.00;;;9.60
25514;BMP180;48128;54.242;10.280;2022-09-30T04:06:45;100260.00;;;9.60
25514;BMP180;48128;54.242;10.280;2022-09-30T04:09:12;100255.00;;;9.60
25514;BMP180;48128;54.242;10.280;2022-09-30T04:11:39;100257.00;;;9.60
25514;BMP180;48128;54.242;10.280;2022-09-30T04:14:06;100262.00;;;9.60
25514;BMP180;48128;54.242;10.280;2022-09-30T04:16:33;100266.00;;;9.60
25514;BMP180;48128;54.242;10.280;2022-09-30T04:19:00;100276.00;;;9.60
25514;BMP180;48128;54.242;10.280;2022-09-30T04:21:27;100274.00;;;9.60
25514;BMP180;48128;54.242;10.280;2022-09-30T04:23:54;100271.00;;;9.60
25514;BMP180;48128;54.242;10.280;2022-09-30T04:26:24;100270.00;;;9.60
25514;BMP180;48128;54.242;10.280;2022-09-30T04:28:52;100269.00;;;9.60
25514;BMP180;48128;54.242;10.280;2022-09-30T04:31:24;100274.00;;;9.60
25514;BMP180;48128;54.242;10.280;2022-09-30T04:33:51;100279.00;;;9.60
25514;BMP180;48128;54.242;10.280;2022-09-30T04:36:18;100282.00;;;9.60
25514;BMP180;48128;54.242;10.280;2022-09-30T04:38:44;100283.00;;;9.60
25514;BMP180;48128;54.242;10.280;2022-09-30T04:41:14;100285.00;;;9.60
25514;BMP180;48128;54.242;10.280;2022-09-30T04:43:45;100293.00;;;9.60
25514;BMP180;48128;54.242;10.280;2022-09-30T04:46:17;100290.00;;;9.60
25514;BMP180;48128;54.242;10.280;2022-09-30T04:48:44;100296.00;;;9.60
25514;BMP180;48128;54.242;10.280;2022-09-30T04:51:16;100295.00;;;9.60
25514;BMP180;48128;54.242;10.280;2022-09-30T04:53:44;100306.00;;;9.60
25514;BMP180;48128;54.242;10.280;2022-09-30T04:56:12;100302.00;;;9.60
25514;BMP180;48128;54.242;10.280;2022-09-30T04:58:39;100318.00;;;9.60
25514;BMP180;48128;54.242;10.280;2022-09-30T05:01:07;100316.00;;;9.60
25514;BMP180;48128;54.242;10.280;2022-09-30T05:03:35;100315.00;;;9.60
25514;BMP180;48128;54.242;10.280;2022-09-30T05:06:03;100322.00;;;9.70
25514;BMP180;48128;54.242;10.280;2022-09-30T05:08:30;100308.00;;;9.60
25514;BMP180;48128;54.242;10.280;2022-09-30T05:11:06;100320.00;;;9.60
25514;BMP180;48128;54.242;10.280;2022-09-30T05:13:37;100321.00;;;9.60
25514;BMP180;48128;54.242;10.280;2022-09-30T05:16:05;100333.00;;;9.60
25514;BMP180;48128;54.242;10.280;2022-09-30T05:18:33;100334.00;;;9.60
25514;BMP180;48128;54.242;10.280;2022-09-30T05:21:01;100338.00;;;9.60
25514;BMP180;48128;54.242;10.280;2022-09-30T05:23:29;100323.00;;;9.60
25514;BMP180;48128;54.242;10.280;2022-09-30T05:25:57;100345.00;;;9.60
25514;BMP180;48128;54.242;10.280;2022-09-30T05:28:24;100337.00;;;9.70
25514;BMP180;48128;54.242;10.280;2022-09-30T05:30:59;100347.00;;;9.70
25514;BMP180;48128;54.242;10.280;2022-09-30T05:33:27;100355.00;;;9.70
25514;BMP180;48128;54.242;10.280;2022-09-30T05:35:59;100344.00;;;9.70
25514;BMP180;48128;54.242;10.280;2022-09-30T05:38:26;100350.00;;;9.70
25514;BMP180;48128;54.242;10.280;2022-09-30T05:40:53;100354.00;;;9.70
25514;BMP180;48128;54.242;10.280;2022-09-30T05:43:20;100337.00;;;9.70
25514;BMP180;48128;54.242;10.280;2022-09-30T05:45:56;100345.00;;;9.70
25514;BMP180;48128;54.242;10.280;2022-09-30T05:48:23;100342.00;;;9.70
25514;BMP180;48128;54.242;10.280;2022-09-30T05:50:55;100342.00;;;9.70
25514;BMP180;48128;54.242;10.280;2022-09-30T05:53:23;100347.00;;;9.70
25514;BMP180;48128;54.242;10.280;2022-09-30T05:55:50;100345.00;;;9.70
25514;BMP180;48128;54.242;10.280;2022-09-30T05:58:18;100348.00;;;9.80
25514;BMP180;48128;54.242;10.280;2022-09-30T06:00:46;100358.00;;;9.80
25514;BMP180;48128;54.242;10.280;2022-09-30T06:03:13;100351.00;;;9.80
25514;BMP180;48128;54.242;10.280;2022-09-30T06:05:40;100351.00;;;9.80
25514;BMP180;48128;54.242;10.280;2022-09-30T06:08:07;100360.00;;;9.80
25514;BMP180;48128;54.242;10.280;2022-09-30T06:10:34;100357.00;;;9.80
25514;BMP180;48128;54.242;10.280;2022-09-30T06:13:02;100359.00;;;9.80
25514;BMP180;48128;54.242;10.280;2022-09-30T06:15:29;100352.00;;;9.90
25514;BMP180;48128;54.242;10.280;2022-09-30T06:17:56;100365.00;;;9.90
25514;BMP180;48128;54.242;10.280;2022-09-30T06:20:24;100368.00;;;9.90
25514;BMP180;48128;54.242;10.280;2022-09-30T06:22:51;100363.00;;;9.90
25514;BMP180;48128;54.242;10.280;2022-09-30T06:25:17;100370.00;;;10.00
25514;BMP180;48128;54.242;10.280;2022-09-30T06:27:45;100355.00;;;10.00
25514;BMP180;48128;54.242;10.280;2022-09-30T06:30:13;100361.00;;;10.10
25514;BMP180;48128;54.242;10.280;2022-09-30T06:32:40;100366.00;;;10.00
25514;BMP180;48128;54.242;10.280;2022-09-30T06:35:08;100366.00;;;10.00
25514;BMP180;48128;54.242;10.280;2022-09-30T06:37:35;100361.00;;;10.00
25514;BMP180;48128;54.242;10.280;2022-09-30T06:40:04;100367.00;;;10.10
25514;BMP180;48128;54.242;10.280;2022-09-30T06:42:32;100373.00;;;10.10
25514;BMP180;48128;54.242;10.280;2022-09-30T06:44:59;100365.00;;;10.10
25514;BMP180;48128;54.242;10.280;2022-09-30T06:47:26;100371.00;;;10.20
25514;BMP180;48128;54.242;10.280;2022-09-30T06:49:53;100378.00;;;10.30
25514;BMP180;48128;54.242;10.280;2022-09-30T06:52:25;100388.00;;;10.40
25514;BMP180;48128;54.242;10.280;2022-09-30T06:54:53;100386.00;;;10.50
25514;BMP180;48128;54.242;10.280;2022-09-30T06:57:23;100386.00;;;10.50
25514;BMP180;48128;54.242;10.280;2022-09-30T06:59:52;100386.00;;;10.60
25514;BMP180;48128;54.242;10.280;2022-09-30T07:02:20;100389.00;;;10.70
25514;BMP180;48128;54.242;10.280;2022-09-30T07:04:47;100383.00;;;10.80
25514;BMP180;48128;54.242;10.280;2022-09-30T07:07:14;100384.00;;;10.90
25514;BMP180;48128;54.242;10.280;2022-09-30T07:09:41;100387.00;;;10.90
25514;BMP180;48128;54.242;10.280;2022-09-30T07:12:09;100394.00;;;11.00
25514;BMP180;48128;54.242;10.280;2022-09-30T07:14:35;100389.00;;;11.00
25514;BMP180;48128;54.242;10.280;2022-09-30T07:17:04;100388.00;;;10.90
25514;BMP180;48128;54.242;10.280;2022-09-30T07:19:31;100393.00;;;10.90
25514;BMP180;48128;54.242;10.280;2022-09-30T07:22:01;100397.00;;;10.90
25514;BMP180;48128;54.242;10.280;2022-09-30T07:24:47;100397.00;;;10.80
25514;BMP180;48128;54.242;10.280;2022-09-30T07:27:14;100385.00;;;10.80
25514;BMP180;48128;54.242;10.280;2022-09-30T07:29:41;100385.00;;;10.80
25514;BMP180;48128;54.242;10.280;2022-09-30T07:32:29;100393.00;;;10.80
25514;BMP180;48128;54.242;10.280;2022-09-30T07:34:56;100385.00;;;10.80
25514;BMP180;48128;54.242;10.280;2022-09-30T07:37:25;100394.00;;;10.90
25514;BMP180;48128;54.242;10.280;2022-09-30T07:39:52;100390.00;;;10.90
25514;BMP180;48128;54.242;10.280;2022-09-30T07:42:19;100395.00;;;10.90
25514;BMP180;48128;54.242;10.280;2022-09-30T07:44:49;100412.00;;;11.00
25514;BMP180;48128;54.242;10.280;2022-09-30T07:47:17;100404.00;;;11.00
25514;BMP180;48128;54.242;10.280;2022-09-30T07:49:45;100403.00;;;11.00
25514;BMP180;48128;54.242;10.280;2022-09-30T07:52:12;100403.00;;;11.00
25514;BMP180;48128;54.242;10.280;2022-09-30T07:54:39;100406.00;;;11.10
25514;BMP180;48128;54.242;10.280;2022-09-30T07:57:12;100399.00;;;11.10
25514;BMP180;48128;54.242;10.280;2022-09-30T07:59:40;100405.00;;;11.20
25514;BMP180;48128;54.242;10.280;2022-09-30T08:02:12;100394.00;;;11.30
25514;BMP180;48128;54.242;10.280;2022-09-30T08:04:40;100402.00;;;11.40
25514;BMP180;48128;54.242;10.280;2022-09-30T08:07:11;100407.00;;;11.40
25514;BMP180;48128;54.242;10.280;2022-09-30T08:09:38;100413.00;;;11.40
25514;BMP180;48128;54.242;10.280;2022-09-30T08:12:05;100404.00;;;11.40
25514;BMP180;48128;54.242;10.280;2022-09-30T08:14:32;100407.00;;;11.40
25514;BMP180;48128;54.242;10.280;2022-09-30T08:16:59;100404.00;;;11.40
25514;BMP180;48128;54.242;10.280;2022-09-30T08:19:30;100408.00;;;11.40
25514;BMP180;48128;54.242;10.280;2022-09-30T08:21:59;100405.00;;;11.40
25514;BMP180;48128;54.242;10.280;2022-09-30T08:24:25;100400.00;;;11.50
25514;BMP180;48128;54.242;10.280;2022-09-30T08:26:53;100399.00;;;11.50
25514;BMP180;48128;54.242;10.280;2022-09-30T08:29:20;100390.00;;;11.60
25514;BMP180;48128;54.242;10.280;2022-09-30T08:32:07;100404.00;;;11.80
25514;BMP180;48128;54.242;10.280;2022-09-30T08:34:34;100408.00;;;11.90
25514;BMP180;48128;54.242;10.280;2022-09-30T08:37:02;100409.00;;;12.10
25514;BMP180;48128;54.242;10.280;2022-09-30T08:39:35;100407.00;;;12.20
25514;BMP180;48128;54.242;10.280;2022-09-30T08:42:20;100423.00;;;12.30
25514;BMP180;48128;54.242;10.280;2022-09-30T08:45:09;100427.00;;;12.50
25514;BMP180;48128;54.242;10.280;2022-09-30T08:53:24;100428.00;;;12.80
25514;BMP180;48128;54.242;10.280;2022-09-30T08:55:51;100419.00;;;12.80
25514;BMP180;48128;54.242;10.280;2022-09-30T08:58:29;100415.00;;;13.00
25514;BMP180;48128;54.242;10.280;2022-09-30T09:03:43;100414.00;;;13.40
25514;BMP180;48128;54.242;10.280;2022-09-30T09:06:23;100425.00;;;13.50
25514;BMP180;48128;54.242;10.280;2022-09-30T09:09:20;100419.00;;;13.50
25514;BMP180;48128;54.242;10.280;2022-09-30T09:14:57;100418.00;;;13.20
25514;BMP180;48128;54.242;10.280;2022-09-30T09:20:55;100402.00;;;13.10
25514;BMP180;48128;54.242;10.280;2022-09-30T09:23:23;100424.00;;;13.20
25514;BMP180;48128;54.242;10.280;2022-09-30T09:25:51;100429.00;;;13.10
25514;BMP180;48128;54.242;10.280;2022-09-30T09:30:53;100411.00;;;13.30
25514;BMP180;48128;54.242;10.280;2022-09-30T09:33:28;100405.00;;;13.30
25514;BMP180;48128;54.242;10.280;2022-09-30T09:36:07;100421.00;;;13.30
25514;BMP180;48128;54.242;10.280;2022-09-30T09:44:23;100397.00;;;13.70
25514;BMP180;48128;54.242;10.280;2022-09-30T09:47:10;100423.00;;;13.80
25514;BMP180;48128;54.242;10.280;2022-09-30T09:49:53;100433.00;;;13.80
25514;BMP180;48128;54.242;10.280;2022-09-30T09:55:09;100422.00;;;14.00
25514;BMP180;48128;54.242;10.280;2022-09-30T09:57:36;100443.00;;;14.00
25514;BMP180;48128;54.242;10.280;2022-09-30T10:00:07;100451.00;;;14.00
25514;BMP180;48128;54.242;10.280;2022-09-30T10:03:04;100434.00;;;13.90
25514;BMP180;48128;54.242;10.280;2022-09-30T10:05:35;100424.00;;;13.90
25514;BMP180;48128;54.242;10.280;2022-09-30T10:08:17;100445.00;;;13.90
25514;BMP180;48128;54.242;10.280;2022-09-30T10:10:56;100435.00;;;13.80
25514;BMP180;48128;54.242;10.280;2022-09-30T10:16:03;100429.00;;;13.60
25514;BMP180;48128;54.242;10.280;2022-09-30T10:18:34;100419.00;;;13.60
25514;BMP180;48128;54.242;10.280;2022-09-30T10:21:17;100434.00;;;13.70
25514;BMP180;48128;54.242;10.280;2022-09-30T10:23:45;100450.00;;;13.70
25514;BMP180;48128;54.242;10.280;2022-09-30T10:26:18;100434.00;;;13.70
25514;BMP180;48128;54.242;10.280;2022-09-30T10:28:50;100421.00;;;13.60
25514;BMP180;48128;54.242;10.280;2022-09-30T10:31:25;100415.00;;;13.70
25514;BMP180;48128;54.242;10.280;2022-09-30T10:36:44;100425.00;;;13.80
25514;BMP180;48128;54.242;10.280;2022-09-30T10:39:19;100435.00;;;13.60
25514;BMP180;48128;54.242;10.280;2022-09-30T10:41:50;100434.00;;;13.60
25514;BMP180;48128;54.242;10.280;2022-09-30T10:44:20;100413.00;;;13.60
25514;BMP180;48128;54.242;10.280;2022-09-30T10:46:48;100422.00;;;13.60
25514;BMP180;48128;54.242;10.280;2022-09-30T10:49:27;100426.00;;;13.50
25514;BMP180;48128;54.242;10.280;2022-09-30T10:51:55;100427.00;;;13.50
25514;BMP180;48128;54.242;10.280;2022-09-30T10:57:22;100436.00;;;13.60
25514;BMP180;48128;54.242;10.280;2022-09-30T10:59:53;100445.00;;;13.70
25514;BMP180;48128;54.242;10.280;2022-09-30T11:05:43;100444.00;;;13.90
25514;BMP180;48128;54.242;10.280;2022-09-30T11:08:23;100451.00;;;14.00
25514;BMP180;48128;54.242;10.280;2022-09-30T11:13:47;100500.00;;;14.20
25514;BMP180;48128;54.242;10.280;2022-09-30T11:16:32;100485.00;;;14.30
25514;BMP180;48128;54.242;10.280;2022-09-30T11:21:52;100507.00;;;14.50
25514;BMP180;48128;54.242;10.280;2022-09-30T11:24:40;100507.00;;;14.50
25514;BMP180;48128;54.242;10.280;2022-09-30T11:29:49;100502.00;;;14.70
25514;BMP180;48128;54.242;10.280;2022-09-30T11:45:52;100515.00;;;15.00
25514;BMP180;48128;54.242;10.280;2022-09-30T11:50:54;100512.00;;;15.10
25514;BMP180;48128;54.242;10.280;2022-09-30T11:53:41;100518.00;;;15.20
25514;BMP180;48128;54.242;10.280;2022-09-30T11:58:59;100528.00;;;15.90
25514;BMP180;48128;54.242;10.280;2022-09-30T12:01:37;100524.00;;;16.10
25514;BMP180;48128;54.242;10.280;2022-09-30T12:04:12;100544.00;;;16.00
25514;BMP180;48128;54.242;10.280;2022-09-30T12:09:30;100490.00;;;16.10
25514;BMP180;48128;54.242;10.280;2022-09-30T12:12:17;100503.00;;;16.10
25514;BMP180;48128;54.242;10.280;2022-09-30T12:14:52;100502.00;;;16.10
25514;BMP180;48128;54.242;10.280;2022-09-30T12:17:33;100525.00;;;15.90
25514;BMP180;48128;54.242;10.280;2022-09-30T12:20:13;100496.00;;;15.60
25514;BMP180;48128;54.242;10.280;2022-09-30T12:22:44;100520.00;;;15.30
25514;BMP180;48128;54.242;10.280;2022-09-30T12:25:17;100493.00;;;15.10
25514;BMP180;48128;54.242;10.280;2022-09-30T12:27:55;100468.00;;;15.00
25514;BMP180;48128;54.242;10.280;2022-09-30T12:30:25;100453.00;;;15.00
25514;BMP180;48128;54.242;10.280;2022-09-30T12:39:35;100489.00;;;14.90
25514;BMP180;48128;54.242;10.280;2022-09-30T12:42:27;100482.00;;;14.90
25514;BMP180;48128;54.242;10.280;2022-09-30T12:47:55;100481.00;;;15.00
25514;BMP180;48128;54.242;10.280;2022-09-30T12:50:27;100492.00;;;15.00
25514;BMP180;48128;54.242;10.280;2022-09-30T12:52:56;100481.00;;;15.00
25514;BMP180;48128;54.242;10.280;2022-09-30T12:55:27;100491.00;;;15.00
25514;BMP180;48128;54.242;10.280;2022-09-30T12:57:59;100500.00;;;15.00
25514;BMP180;48128;54.242;10.280;2022-09-30T13:00:30;100471.00;;;15.00
25514;BMP180;48128;54.242;10.280;2022-09-30T13:03:07;100454.00;;;15.40
25514;BMP180;48128;54.242;10.280;2022-09-30T13:08:22;100507.00;;;15.50
25514;BMP180;48128;54.242;10.280;2022-09-30T13:10:59;100516.00;;;15.30
25514;BMP180;48128;54.242;10.280;2022-09-30T13:13:30;100477.00;;;15.20
25514;BMP180;48128;54.242;10.280;2022-09-30T13:16:00;100485.00;;;15.10
25514;BMP180;48128;54.242;10.280;2022-09-30T13:23:49;100475.00;;;14.90
25514;BMP180;48128;54.242;10.280;2022-09-30T13:28:54;100465.00;;;14.80
25514;BMP180;48128;54.242;10.280;2022-09-30T13:34:33;100460.00;;;15.00
25514;BMP180;48128;54.242;10.280;2022-09-30T13:37:40;100470.00;;;15.10
25514;BMP180;48128;54.242;10.280;2022-09-30T13:40:14;100476.00;;;15.10
25514;BMP180;48128;54.242;10.280;2022-09-30T13:42:45;100490.00;;;15.10
25514;BMP180;48128;54.242;10.280;2022-09-30T13:45:18;100451.00;;;15.10
25514;BMP180;48128;54.242;10.280;2022-09-30T13:48:01;100461.00;;;15.10
25514;BMP180;48128;54.242;10.280;2022-09-30T13:50:50;100476.00;;;15.10
25514;BMP180;48128;54.242;10.280;2022-09-30T13:53:28;100470.00;;;15.20
25514;BMP180;48128;54.242;10.280;2022-09-30T13:55:58;100495.00;;;15.40
25514;BMP180;48128;54.242;10.280;2022-09-30T13:58:52;100509.00;;;15.50
25514;BMP180;48128;54.242;10.280;2022-09-30T14:07:39;100505.00;;;15.60
25514;BMP180;48128;54.242;10.280;2022-09-30T14:10:18;100527.00;;;15.40
25514;BMP180;48128;54.242;10.280;2022-09-30T14:13:14;100537.00;;;15.40
25514;BMP180;48128;54.242;10.280;2022-09-30T14:15:55;100522.00;;;15.40
25514;BMP180;48128;54.242;10.280;2022-09-30T14:23:37;100549.00;;;15.30
25514;BMP180;48128;54.242;10.280;2022-09-30T14:26:14;100516.00;;;15.40
25514;BMP180;48128;54.242;10.280;2022-09-30T14:28:55;100505.00;;;15.50
25514;BMP180;48128;54.242;10.280;2022-09-30T14:31:23;100546.00;;;15.50
25514;BMP180;48128;54.242;10.280;2022-09-30T14:33:50;100509.00;;;15.40
25514;BMP180;48128;54.242;10.280;2022-09-30T14:36:20;100527.00;;;15.20
25514;BMP180;48128;54.242;10.280;2022-09-30T14:38:55;100504.00;;;15.10
25514;BMP180;48128;54.242;10.280;2022-09-30T14:41:23;100491.00;;;15.00
25514;BMP180;48128;54.242;10.280;2022-09-30T14:43:54;100481.00;;;14.90
25514;BMP180;48128;54.242;10.280;2022-09-30T14:46:33;100493.00;;;14.80
25514;BMP180;48128;54.242;10.280;2022-09-30T14:49:06;100492.00;;;14.80
25514;BMP180;48128;54.242;10.280;2022-09-30T14:51:37;100489.00;;;14.80
25514;BMP180;48128;54.242;10.280;2022-09-30T14:54:22;100496.00;;;14.80
25514;BMP180;48128;54.242;10.280;2022-09-30T14:56:52;100492.00;;;14.80
25514;BMP180;48128;54.242;10.280;2022-09-30T14:59:22;100502.00;;;14.70
25514;BMP180;48128;54.242;10.280;2022-09-30T15:01:59;100479.00;;;14.70
25514;BMP180;48128;54.242;10.280;2022-09-30T15:04:34;100485.00;;;14.60
25514;BMP180;48128;54.242;10.280;2022-09-30T15:07:03;100484.00;;;14.50
25514;BMP180;48128;54.242;10.280;2022-09-30T15:09:34;100488.00;;;14.40
25514;BMP180;48128;54.242;10.280;2022-09-30T15:14:47;100471.00;;;14.30
25514;BMP180;48128;54.242;10.280;2022-09-30T15:17:20;100468.00;;;14.30
25514;BMP180;48128;54.242;10.280;2022-09-30T15:19:47;100471.00;;;14.30
25514;BMP180;48128;54.242;10.280;2022-09-30T15:22:16;100476.00;;;14.40
25514;BMP180;48128;54.242;10.280;2022-09-30T15:24:43;100449.00;;;14.40
25514;BMP180;48128;54.242;10.280;2022-09-30T15:27:27;100460.00;;;14.40
25514;BMP180;48128;54.242;10.280;2022-09-30T15:29:56;100457.00;;;14.40
25514;BMP180;48128;54.242;10.280;2022-09-30T15:32:25;100445.00;;;14.40
25514;BMP180;48128;54.242;10.280;2022-09-30T15:34:53;100428.00;;;14.40
25514;BMP180;48128;54.242;10.280;2022-09-30T15:37:25;100432.00;;;14.50
25514;BMP180;48128;54.242;10.280;2022-09-30T15:39:52;100441.00;;;14.40
25514;BMP180;48128;54.242;10.280;2022-09-30T15:42:45;100444.00;;;14.20
25514;BMP180;48128;54.242;10.280;2022-09-30T15:45:32;100422.00;;;14.10
25514;BMP180;48128;54.242;10.280;2022-09-30T15:50:49;100438.00;;;13.90
25514;BMP180;48128;54.242;10.280;2022-09-30T15:56:21;100437.00;;;13.70
25514;BMP180;48128;54.242;10.280;2022-09-30T15:59:17;100416.00;;;13.60
25514;BMP180;48128;54.242;10.280;2022-09-30T16:01:44;100450.00;;;13.60
25514;BMP180;48128;54.242;10.280;2022-09-30T16:06:47;100426.00;;;13.70
25514;BMP180;48128;54.242;10.280;2022-09-30T16:09:28;100432.00;;;13.60
25514;BMP180;48128;54.242;10.280;2022-09-30T16:14:38;100426.00;;;13.50
25514;BMP180;48128;54.242;10.280;2022-09-30T16:17:05;100427.00;;;13.40
25514;BMP180;48128;54.242;10.280;2022-09-30T16:19:33;100417.00;;;13.30
25514;BMP180;48128;54.242;10.280;2022-09-30T16:22:00;100420.00;;;13.30
25514;BMP180;48128;54.242;10.280;2022-09-30T16:27:00;100432.00;;;13.20
25514;BMP180;48128;54.242;10.280;2022-09-30T16:29:41;100430.00;;;13.20
25514;BMP180;48128;54.242;10.280;2022-09-30T16:32:08;100422.00;;;13.20
25514;BMP180;48128;54.242;10.280;2022-09-30T16:34:35;100414.00;;;13.10
25514;BMP180;48128;54.242;10.280;2022-09-30T16:37:08;100406.00;;;13.00
25514;BMP180;48128;54.242;10.280;2022-09-30T16:39:36;100406.00;;;12.90
25514;BMP180;48128;54.242;10.280;2022-09-30T16:42:14;100400.00;;;12.80
25514;BMP180;48128;54.242;10.280;2022-09-30T16:44:41;100396.00;;;12.70
25514;BMP180;48128;54.242;10.280;2022-09-30T16:47:13;100395.00;;;12.60
25514;BMP180;48128;54.242;10.280;2022-09-30T16:49:41;100411.00;;;12.50